createdAt,value
2022-12-09T00:01:19.892Z,92405.59
2022-12-09T00:03:48.104Z,92417.09
2022-12-09T00:06:19.489Z,92429.00
2022-12-09T00:08:47.773Z,92437.13
2022-12-09T00:11:15.997Z,92433.75
2022-12-09T00:13:43.909Z,92443.66
2022-12-09T00:16:15.610Z,92450.19
2022-12-09T00:18:43.455Z,92446.81
2022-12-09T00:21:15.633Z,92455.16
2022-12-09T00:23:43.452Z,92485.09
2022-12-09T00:26:11.978Z,92493.63
2022-12-09T00:28:40.512Z,92557.28
2022-12-09T00:31:09.282Z,92595.59
2022-12-09T00:33:38.567Z,92572.97
2022-12-09T00:36:08.291Z,92579.09
2022-12-09T00:38:36.799Z,92541.22
2022-12-09T00:41:04.980Z,92527.72
2022-12-09T00:43:33.542Z,92534.88
2022-12-09T00:46:02.212Z,92518.22
2022-12-09T00:48:30.984Z,92528.53
2022-12-09T00:51:00.515Z,92505.13
2022-12-09T00:53:29.163Z,92504.53
2022-12-09T00:55:57.154Z,92500.78
2022-12-09T00:58:25.738Z,92495.22
2022-12-09T01:00:54.737Z,92477.56
2022-12-09T01:03:23.272Z,92489.44
2022-12-09T01:05:51.631Z,92480.91
2022-12-09T01:08:21.556Z,92467.63
2022-12-09T01:10:50.207Z,92455.53
2022-12-09T01:13:18.186Z,92460.31
2022-12-09T01:15:46.194Z,92456.75
2022-12-09T01:18:15.051Z,92466.84
2022-12-09T01:20:43.255Z,92479.13
2022-12-09T01:23:11.106Z,92479.94
2022-12-09T01:25:40.619Z,92504.75
2022-12-09T01:28:08.503Z,92525.34
2022-12-09T01:30:36.590Z,92525.56
2022-12-09T01:33:04.557Z,92533.69
2022-12-09T01:35:32.526Z,92540.81
2022-12-09T01:38:00.526Z,92553.91
2022-12-09T01:40:28.554Z,92545.94
2022-12-09T01:42:57.738Z,92519.75
2022-12-09T01:45:44.944Z,92559.47
2022-12-09T01:48:14.700Z,92578.72
2022-12-09T01:50:48.455Z,92603.13
2022-12-09T01:53:18.134Z,92609.69
2022-12-09T01:55:46.812Z,92618.22
2022-12-09T01:58:17.252Z,92636.25
2022-12-09T02:00:45.801Z,92638.66
2022-12-09T02:03:13.881Z,92639.63
2022-12-09T02:05:42.698Z,92641.41
2022-12-09T02:08:13.987Z,92636.25
2022-12-09T02:10:48.789Z,92638.47
2022-12-09T02:13:27.418Z,92641.84
2022-12-09T02:15:58.910Z,92648.75
2022-12-09T02:18:33.837Z,92654.31
2022-12-09T02:21:05.322Z,92660.09
2022-12-09T02:23:40.106Z,92669.41
2022-12-09T02:26:18.540Z,92667.03
2022-12-09T02:29:03.070Z,92685.09
2022-12-09T02:32:03.705Z,92713.09
2022-12-09T02:34:35.716Z,92735.13
2022-12-09T02:37:11.398Z,92750.22
2022-12-09T02:39:45.000Z,92765.91
2022-12-09T02:42:18.118Z,92770.47
2022-12-09T02:44:50.976Z,92790.94
2022-12-09T02:47:21.715Z,92799.28
2022-12-09T02:49:54.133Z,92826.72
2022-12-09T02:52:23.712Z,92816.41
2022-12-09T02:54:52.822Z,92829.72
2022-12-09T02:57:25.321Z,92856.53
2022-12-09T02:59:53.799Z,92879.19
2022-12-09T03:02:28.296Z,92883.16
2022-12-09T03:05:10.336Z,92904.22
2022-12-09T03:07:45.481Z,92918.97
2022-12-09T03:10:18.866Z,92939.03
2022-12-09T03:12:53.056Z,92937.25
2022-12-09T03:15:27.013Z,92951.38
2022-12-09T03:17:57.417Z,92964.88
2022-12-09T03:20:29.902Z,92960.31
2022-12-09T03:23:03.686Z,92966.47
2022-12-09T03:25:36.130Z,92976.41
2022-12-09T03:28:06.864Z,92978.81
2022-12-09T03:30:39.265Z,92995.72
2022-12-09T03:33:09.468Z,93014.00
2022-12-09T03:35:42.389Z,93029.75
2022-12-09T03:38:14.702Z,93043.09
2022-12-09T03:40:43.995Z,93033.56
2022-12-09T03:43:17.478Z,93038.72
2022-12-09T03:45:46.676Z,93031.97
2022-12-09T03:48:15.491Z,93038.09
2022-12-09T03:50:53.446Z,93000.41
2022-12-09T03:53:26.847Z,93039.47
2022-12-09T03:56:00.606Z,93045.47
2022-12-09T03:58:32.296Z,93016.75
2022-12-09T04:01:02.155Z,93052.22
2022-12-09T04:03:30.307Z,93062.19
2022-12-09T04:05:59.884Z,93053.22
2022-12-09T04:08:27.895Z,93050.25
2022-12-09T04:10:55.785Z,93059.59
2022-12-09T04:13:23.666Z,93066.38
2022-12-09T04:15:51.475Z,93076.50
2022-12-09T04:18:19.373Z,93074.34
2022-12-09T04:20:47.128Z,93090.44
2022-12-09T04:23:16.317Z,93096.22
2022-12-09T04:25:44.248Z,93105.97
2022-12-09T04:28:12.032Z,93104.38
2022-12-09T04:30:39.833Z,93106.53
2022-12-09T04:33:07.839Z,93133.84
2022-12-09T04:35:36.064Z,93133.84
2022-12-09T04:38:03.907Z,93145.41
2022-12-09T04:40:33.272Z,93149.78
2022-12-09T04:43:01.284Z,93158.94
2022-12-09T04:45:29.268Z,93159.53
2022-12-09T04:47:57.496Z,93165.31
2022-12-09T04:50:25.359Z,93159.53
2022-12-09T04:52:53.461Z,93161.31
2022-12-09T04:55:21.334Z,93161.94
2022-12-09T04:57:50.665Z,93181.25
2022-12-09T05:00:20.129Z,93187.81
2022-12-09T05:02:48.296Z,93188.81
2022-12-09T05:05:16.754Z,93196.19
2022-12-09T05:07:45.160Z,93211.31
2022-12-09T05:10:14.032Z,93209.53
2022-12-09T05:12:42.602Z,93222.88
2022-12-09T05:15:12.700Z,93236.44
2022-12-09T05:17:40.748Z,93247.00
2022-12-09T05:20:10.459Z,93267.91
2022-12-09T05:22:38.561Z,93261.16
2022-12-09T05:25:07.349Z,93265.53
2022-12-09T05:27:37.734Z,93267.31
2022-12-09T05:30:08.629Z,93252.78
2022-12-09T05:32:38.610Z,93245.41
2022-12-09T05:35:07.487Z,93267.91
2022-12-09T05:37:36.827Z,93284.84
2022-12-09T05:40:06.314Z,93291.22
2022-12-09T05:42:40.894Z,93314.88
2022-12-09T05:45:11.044Z,93327.44
2022-12-09T05:47:42.440Z,93329.03
2022-12-09T05:50:11.373Z,93323.88
2022-12-09T05:52:39.753Z,93335.63
2022-12-09T05:55:10.354Z,93338.22
2022-12-09T05:57:38.748Z,93338.94
2022-12-09T06:00:08.182Z,93351.78
2022-12-09T06:02:36.669Z,93342.25
2022-12-09T06:05:07.249Z,93350.59
2022-12-09T06:07:36.018Z,93357.38
2022-12-09T06:10:05.507Z,93358.00
2022-12-09T06:12:33.978Z,93355.78
2022-12-09T06:15:02.265Z,93343.84
2022-12-09T06:17:30.239Z,93335.63
2022-12-09T06:19:58.659Z,93332.25
2022-12-09T06:22:28.127Z,93324.84
2022-12-09T06:25:07.510Z,93326.63
2022-12-09T06:27:35.601Z,93318.88
2022-12-09T06:30:04.055Z,93324.66
2022-12-09T06:32:32.283Z,93318.09
2022-12-09T06:35:01.133Z,93312.31
2022-12-09T06:37:32.550Z,93312.31
2022-12-09T06:40:00.888Z,93303.94
2022-12-09T06:42:28.937Z,93302.38
2022-12-09T06:44:56.940Z,93306.34
2022-12-09T06:47:25.601Z,93310.69
2022-12-09T06:49:54.022Z,93314.88
2022-12-09T06:52:23.463Z,93307.13
2022-12-09T06:54:53.126Z,93309.09
2022-12-09T06:57:21.211Z,93301.34
2022-12-09T06:59:50.017Z,93310.69
2022-12-09T07:02:19.789Z,93316.31
2022-12-09T07:04:48.065Z,93326.25
2022-12-09T07:07:16.144Z,93334.22
2022-12-09T07:09:44.311Z,93338.22
2022-12-09T07:12:13.596Z,93339.00
2022-12-09T07:14:43.247Z,93339.81
2022-12-09T07:17:16.951Z,93336.25
2022-12-09T07:19:46.491Z,93346.75
2022-12-09T07:22:15.263Z,93358.97
2022-12-09T07:24:43.887Z,93366.47
2022-12-09T07:27:19.523Z,93377.69
2022-12-09T07:29:48.160Z,93366.13
2022-12-09T07:32:16.307Z,93360.56
2022-12-09T07:34:44.550Z,93372.72
2022-12-09T07:37:13.892Z,93380.88
2022-12-09T07:39:43.069Z,93375.72
2022-12-09T07:42:11.342Z,93374.91
2022-12-09T07:44:40.629Z,93383.47
2022-12-09T07:47:09.173Z,93366.72
2022-12-09T07:49:37.406Z,93379.28
2022-12-09T07:52:05.708Z,93372.53
2022-12-09T07:54:33.800Z,93373.31
2022-12-09T07:57:01.802Z,93389.25
2022-12-09T07:59:30.240Z,93398.44
2022-12-09T08:02:05.547Z,93402.44
2022-12-09T08:04:36.517Z,93421.94
2022-12-09T08:07:04.776Z,93434.31
2022-12-09T08:09:33.051Z,93434.31
2022-12-09T08:12:01.846Z,93438.31
2022-12-09T08:14:30.277Z,93452.53
2022-12-09T08:16:59.585Z,93470.06
2022-12-09T08:19:27.911Z,93508.56
2022-12-09T08:21:56.231Z,93507.78
2022-12-09T08:24:24.196Z,93550.47
2022-12-09T08:26:52.244Z,93539.31
2022-12-09T08:29:20.736Z,93506.78
2022-12-09T08:31:49.068Z,93517.13
2022-12-09T08:34:18.487Z,93527.72
2022-12-09T08:36:47.112Z,93558.03
2022-12-09T08:39:15.791Z,93572.06
2022-12-09T08:41:44.846Z,93590.00
2022-12-09T08:44:16.562Z,93592.22
2022-12-09T08:46:47.262Z,93612.19
2022-12-09T08:49:18.320Z,93633.75
2022-12-09T08:51:50.194Z,93642.16
2022-12-09T08:54:18.306Z,93641.16
2022-12-09T08:56:47.622Z,93664.09
2022-12-09T08:59:16.910Z,93653.13
2022-12-09T09:01:45.668Z,93659.91
2022-12-09T09:04:16.252Z,93653.13
2022-12-09T09:06:46.692Z,93667.34
2022-12-09T09:09:16.871Z,93691.50
2022-12-09T09:11:45.694Z,93702.31
2022-12-09T09:14:14.995Z,93713.47
2022-12-09T09:16:45.140Z,93731.03
2022-12-09T09:19:16.802Z,93754.44
2022-12-09T09:21:45.770Z,93785.44
2022-12-09T09:24:18.186Z,93807.41
2022-12-09T09:26:47.117Z,93804.19
2022-12-09T09:29:17.393Z,93799.88
2022-12-09T09:31:48.670Z,93867.75
2022-12-09T09:34:19.022Z,93899.41
2022-12-09T09:36:47.647Z,93886.34
2022-12-09T09:39:17.387Z,93905.41
2022-12-09T09:41:52.008Z,93920.22
2022-12-09T09:44:29.583Z,93936.22
2022-12-09T09:46:59.669Z,93942.22
2022-12-09T09:49:36.458Z,93955.81
2022-12-09T09:52:07.950Z,93959.47
2022-12-09T09:54:37.937Z,93965.63
2022-12-09T09:57:14.283Z,93960.63
2022-12-09T10:00:08.793Z,93961.44
2022-12-09T10:02:59.452Z,93926.13
2022-12-09T10:05:32.608Z,93935.25
2022-12-09T10:08:17.933Z,93939.81
2022-12-09T10:10:56.672Z,93933.00
2022-12-09T10:13:32.973Z,93913.00
2022-12-09T10:16:10.379Z,93899.41
2022-12-09T10:18:44.810Z,93883.56
2022-12-09T10:21:17.921Z,93875.38
2022-12-09T10:23:48.797Z,93877.78
2022-12-09T10:26:21.901Z,93828.50
2022-12-09T10:28:55.555Z,93845.00
2022-12-09T10:31:24.276Z,93849.38
2022-12-09T10:33:52.373Z,93843.19
2022-12-09T10:36:29.395Z,93856.16
2022-12-09T10:39:02.385Z,93858.56
2022-12-09T10:42:03.182Z,93847.41
2022-12-09T10:44:31.921Z,93845.78
2022-12-09T10:47:04.186Z,93867.75
2022-12-09T10:49:34.892Z,93871.34
2022-12-09T10:52:05.276Z,93887.16
2022-12-09T10:54:38.735Z,93881.78
2022-12-09T10:57:27.477Z,93903.00
2022-12-09T11:00:09.427Z,93888.56
2022-12-09T11:02:37.514Z,93878.41
2022-12-09T11:05:27.727Z,93902.00
2022-12-09T11:07:58.379Z,93922.19
2022-12-09T11:10:29.627Z,93921.03
2022-12-09T11:13:04.704Z,93955.00
2022-12-09T11:15:39.779Z,93950.78
2022-12-09T11:18:18.409Z,93941.41
2022-12-09T11:20:57.057Z,93944.81
2022-12-09T11:23:25.488Z,93952.41
2022-12-09T11:25:57.740Z,93961.44
2022-12-09T11:28:30.316Z,93985.84
2022-12-09T11:33:52.083Z,93992.44
2022-12-09T11:36:23.462Z,94005.88
2022-12-09T11:38:53.792Z,94005.06
2022-12-09T11:41:41.199Z,94001.84
2022-12-09T11:44:26.259Z,94015.09
2022-12-09T11:47:01.300Z,94023.50
2022-12-09T11:49:30.928Z,94006.69
2022-12-09T11:52:05.931Z,94017.69
2022-12-09T11:54:41.454Z,94016.06
2022-12-09T11:57:28.771Z,94039.31
2022-12-09T12:00:02.726Z,94011.31
2022-12-09T12:02:36.531Z,94038.69
2022-12-09T12:05:21.208Z,94006.69
2022-12-09T12:07:56.909Z,94018.66
2022-12-09T12:10:28.471Z,93992.63
2022-12-09T12:13:03.704Z,94002.47
2022-12-09T12:15:42.573Z,94005.06
2022-12-09T12:18:18.248Z,94007.66
2022-12-09T12:21:02.471Z,94007.66
2022-12-09T12:23:49.431Z,94010.25
2022-12-09T12:26:21.849Z,94006.88
2022-12-09T12:29:12.205Z,94012.69
2022-12-09T12:32:07.144Z,93994.22
2022-12-09T12:34:46.469Z,93976.97
2022-12-09T12:37:30.469Z,93997.81
2022-12-09T12:40:05.656Z,94000.88
2022-12-09T12:43:06.380Z,93978.84
2022-12-09T12:46:03.480Z,93978.22
2022-12-09T12:48:47.062Z,93991.81
2022-12-09T12:51:27.288Z,93975.00
2022-12-09T12:54:03.604Z,93981.00
2022-12-09T12:56:36.137Z,94001.03
2022-12-09T12:59:12.641Z,93988.59
2022-12-09T13:01:54.084Z,93960.63
2022-12-09T13:04:27.704Z,93952.59
2022-12-09T13:07:01.478Z,93944.81
2022-12-09T13:09:37.720Z,93941.78
2022-12-09T13:12:14.722Z,93933.81
2022-12-09T13:14:53.445Z,93916.94
2022-12-09T13:17:25.358Z,93930.59
2022-12-09T13:19:59.605Z,93942.22
2022-12-09T13:22:34.165Z,93956.59
2022-12-09T13:25:16.505Z,93961.78
2022-12-09T13:27:51.239Z,93950.97
2022-12-09T13:30:21.952Z,93940.78
2022-12-09T13:33:10.365Z,93927.22
2022-12-09T13:35:47.126Z,93924.78
2022-12-09T13:38:27.051Z,93944.19
2022-12-09T13:40:54.876Z,93928.19
2022-12-09T13:43:27.040Z,93922.38
2022-12-09T13:45:57.946Z,93920.41
2022-12-09T13:48:42.482Z,93907.88
2022-12-09T13:51:11.991Z,93912.19
2022-12-09T13:53:46.784Z,93914.34
2022-12-09T13:56:25.602Z,93911.56
2022-12-09T13:59:33.259Z,93906.56
2022-12-09T14:02:11.721Z,93913.00
2022-12-09T14:04:47.620Z,93920.78
2022-12-09T14:07:26.113Z,93914.97
2022-12-09T14:09:56.359Z,93910.78
2022-12-09T14:13:01.593Z,93903.97
2022-12-09T14:15:38.882Z,93884.75
2022-12-09T14:18:28.189Z,93891.53
2022-12-09T14:21:28.633Z,93877.34
2022-12-09T14:24:45.155Z,93879.13
2022-12-09T14:27:16.739Z,93861.34
2022-12-09T14:29:47.501Z,93882.94
2022-12-09T14:32:30.377Z,93852.06
2022-12-09T14:35:06.108Z,93832.69
2022-12-09T14:38:00.584Z,93860.53
2022-12-09T14:40:41.833Z,93867.16
2022-12-09T14:43:26.688Z,93857.94
2022-12-09T14:46:00.174Z,93841.78
2022-12-09T14:48:32.387Z,93844.56
2022-12-09T14:51:18.086Z,93857.75
2022-12-09T14:53:50.902Z,93856.16
2022-12-09T14:56:20.532Z,93843.75
2022-12-09T14:58:51.767Z,93863.75
2022-12-09T15:01:19.619Z,93840.97
2022-12-09T15:03:55.632Z,93858.13
2022-12-09T15:06:26.794Z,93826.16
2022-12-09T15:08:58.126Z,93813.56
2022-12-09T15:11:29.110Z,93806.78
2022-12-09T15:14:22.473Z,93800.00
2022-12-09T15:16:51.277Z,93776.50
2022-12-09T15:19:58.063Z,93775.78
2022-12-09T15:22:21.319Z,93779.97
2022-12-09T15:24:50.999Z,93763.81
2022-12-09T15:27:21.042Z,93775.78
2022-12-09T15:29:50.654Z,93775.16
2022-12-09T15:32:24.608Z,93770.53
2022-12-09T15:34:53.468Z,93780.94
2022-12-09T15:37:26.983Z,93762.56
2022-12-09T15:40:01.974Z,93756.41
2022-12-09T15:42:32.272Z,93746.59
2022-12-09T15:45:07.940Z,93742.22
2022-12-09T15:47:39.896Z,93746.22
2022-12-09T15:50:18.322Z,93770.78
2022-12-09T15:52:51.361Z,93772.38
2022-12-09T15:55:23.557Z,93753.19
2022-12-09T15:57:54.349Z,93752.19
2022-12-09T16:00:24.079Z,93738.19
2022-12-09T16:02:52.148Z,93732.41
2022-12-09T16:05:25.996Z,93720.00
2022-12-09T16:07:57.000Z,93732.22
2022-12-09T16:10:26.950Z,93725.44
2022-12-09T16:13:10.794Z,93696.16
2022-12-09T16:15:47.473Z,93713.22
2022-12-09T16:18:18.737Z,93671.88
2022-12-09T16:20:58.959Z,93680.44
2022-12-09T16:23:27.762Z,93690.00
2022-12-09T16:26:06.380Z,93677.03
2022-12-09T16:28:34.850Z,93680.44
2022-12-09T16:31:17.578Z,93671.88
2022-12-09T16:33:49.361Z,93675.44
2022-12-09T16:36:19.802Z,93661.88
2022-12-09T16:39:27.039Z,93652.88
2022-12-09T16:42:01.729Z,93648.69
2022-12-09T16:44:33.062Z,93672.22
2022-12-09T16:47:12.561Z,93671.06
2022-12-09T16:49:42.373Z,93653.50
2022-12-09T16:52:14.020Z,93639.94
2022-12-09T16:54:43.664Z,93651.88
2022-12-09T16:57:14.153Z,93634.31
2022-12-09T16:59:42.489Z,93648.69
2022-12-09T17:02:19.425Z,93623.53
2022-12-09T17:04:48.604Z,93626.13
2022-12-09T17:07:16.486Z,93603.38
2022-12-09T17:09:44.664Z,93591.97
2022-12-09T17:12:12.614Z,93572.34
2022-12-09T17:14:40.530Z,93557.25
2022-12-09T17:17:09.766Z,93552.81
2022-12-09T17:19:41.151Z,93563.59
2022-12-09T17:22:08.959Z,93574.38
2022-12-09T17:24:38.559Z,93552.81
2022-12-09T17:27:07.274Z,93578.75
2022-12-09T17:29:35.145Z,93537.59
2022-12-09T17:32:02.900Z,93562.59
2022-12-09T17:34:30.746Z,93516.72
2022-12-09T17:36:59.808Z,93563.22
2022-12-09T17:39:27.636Z,93568.41
2022-12-09T17:41:55.578Z,93554.84
2022-12-09T17:44:23.671Z,93541.66
2022-12-09T17:46:51.928Z,93540.06
2022-12-09T17:49:20.573Z,93528.66
2022-12-09T17:51:49.763Z,93523.28
2022-12-09T17:54:18.897Z,93512.31
2022-12-09T17:56:47.167Z,93505.75
2022-12-09T17:59:17.830Z,93508.94
2022-12-09T18:01:47.378Z,93516.09
2022-12-09T18:04:15.949Z,93523.28
2022-12-09T18:06:45.260Z,93516.53
2022-12-09T18:09:15.396Z,93486.59
2022-12-09T18:11:46.556Z,93459.03
2022-12-09T18:14:14.959Z,93420.34
2022-12-09T18:16:42.998Z,93419.75
2022-12-09T18:19:15.387Z,93414.75
2022-12-09T18:21:43.646Z,93408.16
2022-12-09T18:24:11.849Z,93397.19
2022-12-09T18:26:42.025Z,93399.19
2022-12-09T18:29:11.818Z,93386.44
2022-12-09T18:31:40.038Z,93385.63
2022-12-09T18:34:08.082Z,93373.25
2022-12-09T18:36:35.845Z,93371.47
2022-12-09T18:39:04.396Z,93399.00
2022-12-09T18:41:33.091Z,93396.41
2022-12-09T18:44:03.412Z,93406.56
2022-12-09T18:46:35.686Z,93421.53
2022-12-09T18:49:05.845Z,93418.94
2022-12-09T18:51:34.193Z,93392.22
2022-12-09T18:54:03.295Z,93416.34
2022-12-09T18:56:32.013Z,93398.38
2022-12-09T18:59:08.999Z,93379.84
2022-12-09T19:01:41.469Z,93411.72
2022-12-09T19:04:14.879Z,93397.41
2022-12-09T19:06:44.760Z,93396.41
2022-12-09T19:09:15.016Z,93403.19
2022-12-09T19:11:44.299Z,93352.13
2022-12-09T19:14:12.256Z,93385.63
2022-12-09T19:16:43.033Z,93379.06
2022-12-09T19:19:13.111Z,93373.25
2022-12-09T19:21:43.079Z,93378.25
2022-12-09T19:24:15.241Z,93399.19
2022-12-09T19:26:45.389Z,93366.47
2022-12-09T19:29:15.340Z,93336.56
2022-12-09T19:31:46.224Z,93346.53
2022-12-09T19:34:16.646Z,93321.44
2022-12-09T19:36:46.740Z,93312.91
2022-12-09T19:39:15.686Z,93303.72
2022-12-09T19:41:44.439Z,93305.50
2022-12-09T19:44:25.784Z,93345.34
2022-12-09T19:47:01.079Z,93332.97
2022-12-09T19:49:29.901Z,93317.81
2022-12-09T19:51:58.257Z,93344.94
2022-12-09T19:54:29.832Z,93318.88
2022-12-09T19:56:58.597Z,93324.59
2022-12-09T19:59:27.275Z,93336.19
2022-12-09T20:01:55.599Z,93334.59
2022-12-09T20:07:16.041Z,93368.72
2022-12-09T20:09:44.896Z,93384.03
2022-12-09T20:12:12.675Z,93385.63
2022-12-09T20:14:40.819Z,93384.84
2022-12-09T20:17:08.839Z,93373.88
2022-12-09T20:19:37.979Z,93350.16
2022-12-09T20:22:06.695Z,93381.25
2022-12-09T20:24:34.457Z,93383.22
2022-12-09T20:27:02.347Z,93381.25
2022-12-09T20:29:36.994Z,93387.22
2022-12-09T20:32:05.972Z,93369.41
2022-12-09T20:34:33.999Z,93384.84
2022-12-09T20:37:03.235Z,93369.69
2022-12-09T20:39:31.139Z,93369.69
2022-12-09T20:41:59.573Z,93399.78
2022-12-09T20:44:27.283Z,93403.19
2022-12-09T20:46:55.234Z,93433.09
2022-12-09T20:49:26.784Z,93417.94
2022-12-09T20:51:55.415Z,93423.13
2022-12-09T20:54:24.807Z,93453.03
2022-12-09T20:56:53.136Z,93441.47
2022-12-09T20:59:21.212Z,93439.88
2022-12-09T21:01:48.949Z,93443.06
2022-12-09T21:04:17.979Z,93440.47
2022-12-09T21:06:45.943Z,93447.06
2022-12-09T21:09:17.559Z,93484.00
2022-12-09T21:11:47.095Z,93475.81
2022-12-09T21:14:18.090Z,93487.38
2022-12-09T21:16:50.373Z,93506.53
2022-12-09T21:19:25.157Z,93498.78
2022-12-09T21:21:53.610Z,93494.97
2022-12-09T21:24:23.410Z,93489.78
2022-12-09T21:26:55.333Z,93516.53
2022-12-09T21:29:29.911Z,93554.03
2022-12-09T21:31:59.776Z,93555.22
2022-12-09T21:34:29.059Z,93534.06
2022-12-09T21:36:56.887Z,93535.88
2022-12-09T21:39:24.698Z,93522.31
2022-12-09T21:41:54.141Z,93531.69
2022-12-09T21:44:22.443Z,93553.59
2022-12-09T21:46:50.530Z,93540.06
2022-12-09T21:49:18.403Z,93540.06
2022-12-09T21:51:48.504Z,93548.44
2022-12-09T21:54:17.017Z,93535.69
2022-12-09T21:56:45.015Z,93556.00
2022-12-09T21:59:14.301Z,93540.84
2022-12-09T22:01:43.643Z,93544.25
2022-12-09T22:04:15.256Z,93547.63
2022-12-09T22:06:46.483Z,93575.19
2022-12-09T22:09:14.420Z,93562.22
2022-12-09T22:11:42.311Z,93586.00
2022-12-09T22:14:11.525Z,93583.22
2022-12-09T22:16:43.535Z,93583.59
2022-12-09T22:19:15.395Z,93592.59
2022-12-09T22:21:43.519Z,93547.19
2022-12-09T22:24:12.937Z,93558.41
2022-12-09T22:26:43.476Z,93572.78
2022-12-09T22:29:13.011Z,93584.38
2022-12-09T22:31:43.300Z,93591.97
2022-12-09T22:34:13.813Z,93577.59
2022-12-09T22:36:42.175Z,93561.63
2022-12-09T22:39:13.001Z,93571.97
2022-12-09T22:41:41.542Z,93568.75
2022-12-09T22:44:12.043Z,93561.63
2022-12-09T22:46:39.840Z,93547.44
2022-12-09T22:49:09.792Z,93586.00
2022-12-09T22:51:37.598Z,93572.78
2022-12-09T22:54:08.054Z,93532.66
2022-12-09T22:56:38.136Z,93568.75
2022-12-09T22:59:06.279Z,93545.59
2022-12-09T23:01:37.238Z,93541.03
2022-12-09T23:04:06.999Z,93535.63
2022-12-09T23:06:38.485Z,93565.56
2022-12-09T23:09:07.709Z,93556.00
2022-12-09T23:11:37.677Z,93549.41
2022-12-09T23:14:05.412Z,93535.25
2022-12-09T23:16:34.462Z,93551.03
2022-12-09T23:19:02.184Z,93559.41
2022-12-09T23:21:31.898Z,93553.78
2022-12-09T23:24:03.373Z,93588.75
2022-12-09T23:26:33.041Z,93566.00
2022-12-09T23:29:02.966Z,93558.22
2022-12-09T23:31:33.355Z,93583.59
2022-12-09T23:34:02.469Z,93595.16
2022-12-09T23:36:34.434Z,93617.13
2022-12-09T23:39:07.490Z,93623.53
2022-12-09T23:41:35.471Z,93630.50
2022-12-09T23:44:05.629Z,93609.16
2022-12-09T23:46:33.405Z,93640.28
2022-12-09T23:49:01.465Z,93637.09
2022-12-09T23:51:31.657Z,93629.31
2022-12-09T23:54:02.315Z,93637.09
2022-12-09T23:56:33.755Z,93673.84
2022-12-09T23:59:03.625Z,93671.25
